AFR93Q LFML-LDDU
Flight info
| Callsign | AFR93Q |
|---|---|
| Flight time | N/A |
| Altitude | 36000 |
| Route | NASIK P856 RAPED DCT PIGOS DCT EKSID DCT NOSTA DCT EGHIN/N0491F340 DCT BAGNO/N0483F410 DCT LIKNO DCT ASDOR/N0482F400 DCT EDUGI/N0483F410 DCT ELGUS DCT SIPAL |
| Aircraft | A359/H-SDE2E3GHIJ3J4J5LM1ORWXY/LB1D1 |
Departure
| Time | 2026-04-27 14:43 |
|---|---|
| Airport | Marseille Provence Airport (LFML) |
Arrival
| Time | N/A |
|---|---|
| Airport | Dubrovnik Ruđer Bošković Airport (LDDU) |
| Time | Latitude | Longitude | Altitude | Speed | Heading |
|---|---|---|---|---|---|
| 2026-04-27 14:20 | 43.43806 | 5.22326 | 53 ft | 0 kts | 48° |
| 2026-04-27 14:33 | 43.43804 | 5.22323 | 46 ft | 1 kts | 48° |
| 2026-04-27 14:33 | 43.43792 | 5.22305 | 46 ft | 3 kts | 48° |
| 2026-04-27 14:33 | 43.43780 | 5.22285 | 47 ft | 3 kts | 46° |
| 2026-04-27 14:34 | 43.43765 | 5.22267 | 46 ft | 3 kts | 26° |
| 2026-04-27 14:34 | 43.43747 | 5.22259 | 45 ft | 3 kts | 2° |
| 2026-04-27 14:34 | 43.43727 | 5.22261 | 48 ft | 3 kts | 340° |
| 2026-04-27 14:34 | 43.43719 | 5.22266 | 47 ft | 1 kts | 334° |
| 2026-04-27 14:38 | 43.43738 | 5.22247 | 45 ft | 3 kts | 303° |
| 2026-04-27 14:38 | 43.43733 | 5.22224 | 51 ft | 4 kts | 252° |
| 2026-04-27 14:38 | 43.43706 | 5.22150 | 46 ft | 13 kts | 248° |
| 2026-04-27 14:38 | 43.43744 | 5.22030 | 46 ft | 17 kts | 317° |
| 2026-04-27 14:39 | 43.43840 | 5.21902 | 44 ft | 21 kts | 314° |
| 2026-04-27 14:39 | 43.43955 | 5.21737 | 42 ft | 26 kts | 313° |
| 2026-04-27 14:39 | 43.43932 | 5.21566 | 40 ft | 19 kts | 244° |
| 2026-04-27 14:39 | 43.43981 | 5.21403 | 37 ft | 21 kts | 313° |
| 2026-04-27 14:40 | 43.44093 | 5.21241 | 32 ft | 26 kts | 313° |
| 2026-04-27 14:40 | 43.44222 | 5.21056 | 27 ft | 29 kts | 314° |
| 2026-04-27 14:40 | 43.44343 | 5.20820 | 29 ft | 31 kts | 309° |
| 2026-04-27 14:40 | 43.44497 | 5.20599 | 28 ft | 32 kts | 312° |
| 2026-04-27 14:41 | 43.44654 | 5.20371 | 27 ft | 33 kts | 314° |
| 2026-04-27 14:41 | 43.44784 | 5.20186 | 26 ft | 21 kts | 314° |
| 2026-04-27 14:41 | 43.44893 | 5.20030 | 28 ft | 24 kts | 314° |
| 2026-04-27 14:41 | 43.44967 | 5.19845 | 26 ft | 21 kts | 240° |
| 2026-04-27 14:42 | 43.44842 | 5.19847 | 26 ft | 21 kts | 143° |
| 2026-04-27 14:42 | 43.44727 | 5.19996 | 26 ft | 28 kts | 136° |
| 2026-04-27 14:42 | 43.44436 | 5.20405 | 29 ft | 97 kts | 133° |
| 2026-04-27 14:42 | 43.43823 | 5.21286 | 41 ft | 159 kts | 134° |
| 2026-04-27 14:43 | 43.43056 | 5.22434 | 729 ft | 165 kts | 134° |
| 2026-04-27 14:43 | 43.42464 | 5.23883 | 1260 ft | 192 kts | 103° |
| 2026-04-27 14:43 | 43.42640 | 5.25833 | 1868 ft | 213 kts | 72° |
| 2026-04-27 14:43 | 43.42980 | 5.27854 | 2447 ft | 225 kts | 84° |
| 2026-04-27 14:44 | 43.43062 | 5.30051 | 2929 ft | 237 kts | 86° |
| 2026-04-27 14:44 | 43.43126 | 5.32384 | 3586 ft | 244 kts | 86° |
| 2026-04-27 14:44 | 43.43163 | 5.34710 | 4225 ft | 250 kts | 88° |
| 2026-04-27 14:44 | 43.43148 | 5.37133 | 4928 ft | 254 kts | 91° |
| 2026-04-27 14:45 | 43.43020 | 5.39586 | 5533 ft | 259 kts | 94° |
| 2026-04-27 14:45 | 43.42876 | 5.42079 | 6144 ft | 266 kts | 93° |
| 2026-04-27 14:45 | 43.42742 | 5.44650 | 6755 ft | 271 kts | 93° |
| 2026-04-27 14:45 | 43.42611 | 5.47246 | 7382 ft | 275 kts | 93° |
| 2026-04-27 14:46 | 43.42475 | 5.49887 | 8030 ft | 278 kts | 94° |
| 2026-04-27 14:46 | 43.42341 | 5.52556 | 8704 ft | 281 kts | 93° |
| 2026-04-27 14:46 | 43.42205 | 5.55265 | 9350 ft | 285 kts | 93° |
| 2026-04-27 14:46 | 43.42070 | 5.57987 | 10013 ft | 288 kts | 93° |
| 2026-04-27 14:47 | 43.41930 | 5.60789 | 10509 ft | 297 kts | 94° |
| 2026-04-27 14:47 | 43.41786 | 5.63677 | 10878 ft | 309 kts | 93° |
| 2026-04-27 14:47 | 43.41642 | 5.66697 | 11250 ft | 321 kts | 92° |
| 2026-04-27 14:47 | 43.41535 | 5.69818 | 11604 ft | 332 kts | 92° |
| 2026-04-27 14:48 | 43.41448 | 5.73010 | 11972 ft | 342 kts | 91° |
| 2026-04-27 14:48 | 43.41272 | 5.79677 | 12878 ft | 353 kts | 91° |
| 2026-04-27 14:48 | 43.41174 | 5.83081 | 13309 ft | 359 kts | 91° |
| 2026-04-27 14:49 | 43.41070 | 5.86497 | 13805 ft | 362 kts | 91° |
| 2026-04-27 14:49 | 43.40959 | 5.89999 | 14251 ft | 366 kts | 92° |
| 2026-04-27 14:49 | 43.40847 | 5.93472 | 14639 ft | 370 kts | 91° |
| 2026-04-27 14:49 | 43.40729 | 5.97029 | 15076 ft | 373 kts | 91° |
| 2026-04-27 14:50 | 43.40609 | 6.00636 | 15526 ft | 376 kts | 92° |
| 2026-04-27 14:50 | 43.40488 | 6.04259 | 15950 ft | 380 kts | 91° |
| 2026-04-27 14:50 | 43.40368 | 6.07836 | 16396 ft | 382 kts | 91° |
| 2026-04-27 14:50 | 43.40243 | 6.11557 | 16878 ft | 385 kts | 91° |
| 2026-04-27 14:51 | 43.40119 | 6.15213 | 17328 ft | 388 kts | 91° |
| 2026-04-27 14:51 | 43.40106 | 6.18906 | 17760 ft | 390 kts | 85° |
| 2026-04-27 14:51 | 43.40326 | 6.22660 | 18194 ft | 392 kts | 84° |
| 2026-04-27 14:51 | 43.40601 | 6.26346 | 18594 ft | 395 kts | 83° |
| 2026-04-27 14:52 | 43.40913 | 6.30159 | 19027 ft | 396 kts | 82° |
| 2026-04-27 14:52 | 43.41231 | 6.33906 | 19435 ft | 398 kts | 82° |
| 2026-04-27 14:52 | 43.41554 | 6.37703 | 19848 ft | 399 kts | 82° |
| 2026-04-27 14:52 | 43.41876 | 6.41528 | 20265 ft | 401 kts | 82° |
| 2026-04-27 14:53 | 43.42190 | 6.45294 | 20626 ft | 403 kts | 82° |
| 2026-04-27 14:53 | 43.42506 | 6.49142 | 21057 ft | 405 kts | 83° |
| 2026-04-27 14:53 | 43.42822 | 6.53023 | 21432 ft | 408 kts | 83° |
| 2026-04-27 14:53 | 43.43137 | 6.56911 | 21882 ft | 409 kts | 83° |
| 2026-04-27 14:54 | 43.43450 | 6.60799 | 22270 ft | 411 kts | 83° |
| 2026-04-27 14:54 | 43.43766 | 6.64731 | 22642 ft | 413 kts | 83° |
| 2026-04-27 14:54 | 43.44079 | 6.68655 | 22998 ft | 415 kts | 83° |
| 2026-04-27 14:54 | 43.44388 | 6.72538 | 23310 ft | 418 kts | 82° |
| 2026-04-27 14:55 | 43.44708 | 6.76561 | 23698 ft | 419 kts | 82° |
| 2026-04-27 14:55 | 43.45028 | 6.80605 | 24025 ft | 421 kts | 83° |
| 2026-04-27 14:55 | 43.45342 | 6.84584 | 24308 ft | 424 kts | 83° |
| 2026-04-27 14:55 | 43.45662 | 6.88665 | 24613 ft | 426 kts | 83° |
| 2026-04-27 14:56 | 43.45976 | 6.92697 | 24922 ft | 428 kts | 83° |
| 2026-04-27 14:56 | 43.46292 | 6.96781 | 25246 ft | 429 kts | 83° |
| 2026-04-27 14:56 | 43.46610 | 7.00905 | 25568 ft | 431 kts | 83° |
| 2026-04-27 14:56 | 43.46924 | 7.04984 | 25892 ft | 433 kts | 83° |
| 2026-04-27 14:57 | 43.47240 | 7.09121 | 26242 ft | 435 kts | 83° |
| 2026-04-27 14:57 | 43.47558 | 7.13305 | 26603 ft | 437 kts | 83° |
| 2026-04-27 14:57 | 43.47871 | 7.17443 | 26962 ft | 439 kts | 83° |
| 2026-04-27 14:57 | 43.48188 | 7.21652 | 27340 ft | 441 kts | 83° |
| 2026-04-27 14:58 | 43.48504 | 7.25859 | 27721 ft | 444 kts | 83° |
| 2026-04-27 14:58 | 43.48817 | 7.30061 | 28120 ft | 446 kts | 83° |
| 2026-04-27 14:58 | 43.49136 | 7.34348 | 28531 ft | 448 kts | 83° |
| 2026-04-27 14:58 | 43.49450 | 7.38611 | 28938 ft | 451 kts | 83° |
| 2026-04-27 14:59 | 43.49766 | 7.42911 | 29359 ft | 453 kts | 83° |
| 2026-04-27 14:59 | 43.50084 | 7.47261 | 29792 ft | 455 kts | 83° |
| 2026-04-27 14:59 | 43.50401 | 7.51616 | 30204 ft | 458 kts | 83° |
| 2026-04-27 14:59 | 43.50721 | 7.56048 | 30572 ft | 461 kts | 83° |
| 2026-04-27 15:00 | 43.51031 | 7.60356 | 30941 ft | 464 kts | 83° |
| 2026-04-27 15:00 | 43.51348 | 7.64787 | 31353 ft | 465 kts | 83° |
| 2026-04-27 15:00 | 43.51664 | 7.69227 | 31719 ft | 467 kts | 83° |
| 2026-04-27 15:00 | 43.51981 | 7.73715 | 32020 ft | 470 kts | 83° |
| 2026-04-27 15:01 | 43.52304 | 7.78302 | 32322 ft | 474 kts | 83° |
| 2026-04-27 15:01 | 43.52613 | 7.82722 | 32607 ft | 477 kts | 83° |
| 2026-04-27 15:01 | 43.52935 | 7.87350 | 32915 ft | 479 kts | 83° |
| 2026-04-27 15:01 | 43.53252 | 7.91929 | 33204 ft | 482 kts | 83° |
| 2026-04-27 15:02 | 43.53571 | 7.96584 | 33543 ft | 483 kts | 83° |
| 2026-04-27 15:02 | 43.53880 | 8.01116 | 33939 ft | 483 kts | 83° |
| 2026-04-27 15:02 | 43.54194 | 8.05747 | 34257 ft | 485 kts | 83° |
| 2026-04-27 15:02 | 43.54505 | 8.10358 | 34569 ft | 485 kts | 83° |
| 2026-04-27 15:03 | 43.54817 | 8.15018 | 34840 ft | 487 kts | 83° |
| 2026-04-27 15:03 | 43.55125 | 8.19641 | 35142 ft | 487 kts | 83° |
| 2026-04-27 15:03 | 43.55431 | 8.24267 | 35494 ft | 487 kts | 83° |
| 2026-04-27 15:03 | 43.55739 | 8.28948 | 35822 ft | 487 kts | 83° |
| 2026-04-27 15:04 | 43.56045 | 8.33626 | 36070 ft | 490 kts | 83° |
| 2026-04-27 15:04 | 43.56350 | 8.38295 | 36133 ft | 496 kts | 83° |
| 2026-04-27 15:04 | 43.56972 | 8.47935 | 36128 ft | 505 kts | 83° |
| 2026-04-27 15:05 | 43.57583 | 8.57568 | 36125 ft | 506 kts | 83° |
| 2026-04-27 15:05 | 43.58187 | 8.67234 | 36125 ft | 505 kts | 83° |
| 2026-04-27 15:06 | 43.58784 | 8.76896 | 36130 ft | 505 kts | 84° |
| 2026-04-27 15:06 | 43.59372 | 8.86545 | 36131 ft | 506 kts | 84° |
| 2026-04-27 15:07 | 43.59954 | 8.96230 | 36111 ft | 506 kts | 84° |
| 2026-04-27 15:07 | 43.60526 | 9.05890 | 36108 ft | 506 kts | 84° |
| 2026-04-27 15:08 | 43.61091 | 9.15556 | 36113 ft | 506 kts | 84° |
| 2026-04-27 15:08 | 43.61649 | 9.25254 | 36119 ft | 506 kts | 84° |
| 2026-04-27 15:09 | 43.62198 | 9.34944 | 36116 ft | 507 kts | 84° |
| 2026-04-27 15:09 | 43.62738 | 9.44625 | 36114 ft | 506 kts | 84° |
| 2026-04-27 15:10 | 43.63270 | 9.54295 | 36120 ft | 507 kts | 84° |
| 2026-04-27 15:10 | 43.63792 | 9.63944 | 36121 ft | 507 kts | 84° |
| 2026-04-27 15:11 | 43.64314 | 9.73742 | 36117 ft | 507 kts | 84° |
| 2026-04-27 15:11 | 43.64821 | 9.83426 | 36132 ft | 507 kts | 84° |
| 2026-04-27 15:12 | 43.65326 | 9.93231 | 36117 ft | 508 kts | 84° |
| 2026-04-27 15:12 | 43.65641 | 9.98023 | 35336 ft | 484 kts | 75° |
| 2026-04-27 15:12 | 43.66465 | 10.02254 | 35053 ft | 454 kts | 72° |
| 2026-04-27 15:13 | 43.67375 | 10.06540 | 33592 ft | 488 kts | 73° |
| 2026-04-27 15:13 | 43.68124 | 10.10564 | 26311 ft | 411 kts | 75° |
| 2026-04-27 15:13 | 43.68773 | 10.13926 | 13609 ft | 425 kts | 79° |
| 2026-04-27 15:13 | 43.68811 | 10.18760 | 6234 ft | 554 kts | 111° |
| 2026-04-27 15:14 | 43.68707 | 10.22573 | 1171 ft | 459 kts | 93° |
| 2026-04-27 15:14 | 43.67176 | 10.25239 | 2582 ft | 308 kts | 141° |
| 2026-04-27 15:14 | 43.64999 | 10.26483 | 1023 ft | 376 kts | 175° |
| 2026-04-27 15:14 | 43.62162 | 10.26676 | 149 ft | 427 kts | 180° |
| 2026-04-27 15:15 | 43.59169 | 10.26725 | 16 ft | 437 kts | 181° |
| 2026-04-27 15:15 | 43.56817 | 10.26726 | 11 ft | 256 kts | 184° |
| 2026-04-27 15:15 | 43.55218 | 10.26679 | 12 ft | 213 kts | 185° |
| 2026-04-27 15:15 | 43.53780 | 10.26602 | 12 ft | 199 kts | 185° |
| 2026-04-27 15:16 | 43.52447 | 10.26514 | 12 ft | 178 kts | 181° |
| 2026-04-27 15:16 | 43.51166 | 10.26443 | 13 ft | 186 kts | 185° |
| 2026-04-27 15:16 | 43.50098 | 10.26928 | 87 ft | 163 kts | 139° |
| 2026-04-27 15:16 | 43.49435 | 10.27925 | 14 ft | 111 kts | 133° |
| 2026-04-27 15:17 | 43.49028 | 10.28512 | 14 ft | 60 kts | 134° |
| 2026-04-27 15:17 | 43.48841 | 10.28781 | 14 ft | 19 kts | 133° |
| 2026-04-27 15:17 | 43.48798 | 10.28844 | 14 ft | 13 kts | 133° |
| 2026-04-27 15:17 | 43.48718 | 10.28960 | 14 ft | 13 kts | 133° |
| 2026-04-27 15:18 | 43.48678 | 10.29018 | 12 ft | 13 kts | 133° |
| 2026-04-27 15:18 | 43.48598 | 10.29135 | 14 ft | 13 kts | 133° |
| 2026-04-27 15:18 | 43.48558 | 10.29194 | 14 ft | 13 kts | 133° |
| 2026-04-27 15:18 | 43.48498 | 10.29282 | 14 ft | 13 kts | 133° |
| 2026-04-27 15:19 | 43.48444 | 10.29361 | 16 ft | 13 kts | 133° |